Time;durP1;ratioP1;P1;durP2;ratioP2;P2;SDS_P1;SDS_P2;PMS_P1;PMS_P2;Temp;Humidity;BMP_temperature;BMP_pressure;BME280_temperature;BME280_humidity;BME280_pressure;Samples;Min_cycle;Max_cycle;Signal;HPM_P1;HPM_P2
2023/08/23 00:00:00;;;;;;;10.15;6.57;;;17.70;99.90;;;;;;6157262;23;20454;-87
2023/08/23 00:02:25;;;;;;;10.57;8.00;;;17.70;99.90;;;;;;6155864;23;20070;-87
2023/08/23 00:04:51;;;;;;;10.13;7.60;;;17.60;99.90;;;;;;6131680;23;20091;-87
2023/08/23 00:07:17;;;;;;;8.73;6.40;;;17.60;99.90;;;;;;6156568;23;20013;-87
2023/08/23 00:09:43;;;;;;;54.55;9.65;;;17.60;99.90;;;;;;6156166;23;20013;-87
2023/08/23 00:12:17;;;;;;;8.27;5.05;;;17.50;99.90;;;;;;6130566;23;20625;-86
2023/08/23 00:14:43;;;;;;;5.25;2.45;;;17.50;99.90;;;;;;6130796;23;20497;-87
2023/08/23 00:17:09;;;;;;;7.68;4.15;;;17.30;99.90;;;;;;6156539;23;20021;-87
2023/08/23 00:19:34;;;;;;;5.88;2.78;;;17.30;99.90;;;;;;6131924;23;20036;-88
2023/08/23 00:22:00;;;;;;;8.88;3.70;;;17.20;99.90;;;;;;6131883;23;20044;-87
2023/08/23 00:24:25;;;;;;;6.20;3.58;;;17.10;99.90;;;;;;6133109;23;20013;-87
2023/08/23 00:26:53;;;;;;;6.57;3.78;;;17.10;99.90;;;;;;6156877;23;20011;-87
2023/08/23 00:29:19;;;;;;;8.40;4.30;;;17.10;99.90;;;;;;6132279;23;20141;-87
2023/08/23 00:31:44;;;;;;;13.20;6.15;;;17.10;99.90;;;;;;6132168;23;20723;-87
2023/08/23 00:34:10;;;;;;;12.73;3.22;;;17.00;99.90;;;;;;6157312;23;20005;-87
2023/08/23 00:36:36;;;;;;;13.93;4.25;;;16.90;99.90;;;;;;6156248;23;20059;-87
2023/08/23 00:39:01;;;;;;;12.00;4.80;;;16.80;99.90;;;;;;6156060;23;20017;-87
2023/08/23 00:41:27;;;;;;;18.67;4.32;;;16.80;99.90;;;;;;6132598;23;20013;-86
2023/08/23 00:43:52;;;;;;;15.15;3.60;;;16.80;99.90;;;;;;6157105;23;20062;-87
2023/08/23 00:46:19;;;;;;;20.63;5.10;;;16.70;99.90;;;;;;6157077;23;20013;-87
2023/08/23 00:48:46;;;;;;;22.15;5.03;;;16.70;99.90;;;;;;6156911;23;20005;-86
2023/08/23 00:51:13;;;;;;;8.93;2.90;;;16.60;99.90;;;;;;6132735;23;20013;-86
2023/08/23 00:53:39;;;;;;;29.48;5.05;;;16.60;99.90;;;;;;6156018;23;20012;-86
2023/08/23 00:56:05;;;;;;;40.00;5.25;;;16.50;99.90;;;;;;6156299;23;20013;-86
2023/08/23 00:58:31;;;;;;;5.50;2.58;;;16.60;99.90;;;;;;6156824;23;20013;-86
2023/08/23 01:00:57;;;;;;;6.65;3.85;;;16.50;99.90;;;;;;6159121;23;20466;-86
2023/08/23 01:03:23;;;;;;;6.05;3.17;;;16.50;99.90;;;;;;6158131;23;20016;-86
2023/08/23 01:05:51;;;;;;;7.65;4.95;;;16.40;99.90;;;;;;6133494;23;20118;-86
2023/08/23 01:08:49;;;;;;;7.50;4.05;;;16.40;99.90;;;;;;6133890;23;20017;-86
2023/08/23 01:11:17;;;;;;;8.68;5.90;;;16.40;99.90;;;;;;6158384;23;20124;-86
2023/08/23 01:13:52;;;;;;;8.65;6.47;;;16.40;99.90;;;;;;6134425;23;20505;-86
2023/08/23 01:16:19;;;;;;;7.90;5.18;;;16.50;99.90;;;;;;6157655;23;20013;-86
2023/08/23 01:18:45;;;;;;;8.65;3.92;;;16.60;99.90;;;;;;6133496;23;20055;-86
2023/08/23 01:21:18;;;;;;;9.68;7.15;;;16.50;99.90;;;;;;6159195;23;20056;-87
2023/08/23 01:23:44;;;;;;;10.63;7.30;;;16.50;99.90;;;;;;6158386;23;20013;-87
2023/08/23 01:26:10;;;;;;;10.27;7.55;;;16.60;99.90;;;;;;6158583;23;20009;-87
2023/08/23 01:28:36;;;;;;;9.75;6.97;;;16.60;99.90;;;;;;6133953;23;20009;-87
2023/08/23 01:31:05;;;;;;;13.60;4.38;;;16.60;99.90;;;;;;6134672;23;20067;-86
2023/08/23 01:33:37;;;;;;;7.45;5.28;;;16.50;99.90;;;;;;6133479;23;20032;-87
2023/08/23 01:36:25;;;;;;;10.63;5.72;;;16.50;99.90;;;;;;6133678;23;20013;-87
2023/08/23 01:38:53;;;;;;;9.60;3.88;;;16.50;99.90;;;;;;6132960;23;20005;-87
2023/08/23 01:41:19;;;;;;;6.50;3.83;;;16.30;99.90;;;;;;6134120;23;20009;-86
2023/08/23 01:43:47;;;;;;;6.88;2.95;;;16.20;99.90;;;;;;6158185;23;20009;-86
2023/08/23 01:46:13;;;;;;;9.13;4.22;;;16.20;99.90;;;;;;6133771;23;20016;-86
2023/08/23 01:48:39;;;;;;;11.45;8.15;;;16.10;99.90;;;;;;6133259;23;20013;-87
2023/08/23 01:51:06;;;;;;;13.02;8.02;;;16.20;99.90;;;;;;6158794;23;20013;-87
2023/08/23 01:53:32;;;;;;;8.35;5.85;;;16.20;99.90;;;;;;6133041;23;20009;-86
2023/08/23 01:55:59;;;;;;;9.35;7.10;;;16.20;99.90;;;;;;6157835;23;20108;-86
2023/08/23 01:58:25;;;;;;;8.88;6.18;;;16.30;99.90;;;;;;6157214;23;20096;-87
2023/08/23 02:00:52;;;;;;;8.98;5.60;;;16.20;99.90;;;;;;6158419;23;20009;-86
2023/08/23 02:03:18;;;;;;;9.07;5.70;;;16.20;99.90;;;;;;6133323;23;20016;-86
2023/08/23 02:05:44;;;;;;;7.93;4.90;;;16.20;99.90;;;;;;6133427;23;20013;-86
2023/08/23 02:08:10;;;;;;;7.53;4.95;;;16.30;99.90;;;;;;6133166;23;20013;-86
2023/08/23 02:10:36;;;;;;;7.30;4.93;;;16.20;99.90;;;;;;6158233;23;20009;-86
2023/08/23 02:13:06;;;;;;;6.50;3.80;;;16.20;99.90;;;;;;6157950;23;20061;-86
2023/08/23 02:15:32;;;;;;;5.93;2.75;;;16.20;99.90;;;;;;6157555;23;20017;-86
2023/08/23 02:17:58;;;;;;;7.10;4.30;;;16.10;99.90;;;;;;6132796;23;20031;-86
2023/08/23 02:20:23;;;;;;;7.40;4.15;;;16.10;99.90;;;;;;6134020;23;20019;-87
2023/08/23 02:22:49;;;;;;;5.80;2.80;;;16.00;99.90;;;;;;6157437;23;20078;-86
2023/08/23 02:25:14;;;;;;;6.03;2.80;;;16.00;99.90;;;;;;6132837;23;20008;-87
2023/08/23 02:27:40;;;;;;;6.25;3.47;;;16.00;99.90;;;;;;6156855;23;20230;-87
2023/08/23 02:30:06;;;;;;;7.40;3.55;;;16.00;99.90;;;;;;6158110;23;20009;-87
2023/08/23 02:32:33;;;;;;;6.72;3.13;;;16.00;99.90;;;;;;6133381;23;20020;-86
2023/08/23 02:34:59;;;;;;;8.00;5.47;;;16.00;99.90;;;;;;6133342;23;20351;-87
2023/08/23 02:37:24;;;;;;;7.68;5.38;;;16.00;99.90;;;;;;6132679;23;20013;-87
2023/08/23 02:39:50;;;;;;;6.65;3.22;;;16.00;99.90;;;;;;6157159;23;20174;-87
2023/08/23 02:42:15;;;;;;;6.57;3.70;;;16.00;99.90;;;;;;6157576;23;20009;-87
2023/08/23 02:44:41;;;;;;;6.85;3.33;;;16.00;99.90;;;;;;6133200;23;20100;-87
2023/08/23 02:47:06;;;;;;;7.13;3.25;;;15.90;99.90;;;;;;6157941;23;20013;-87
2023/08/23 02:49:32;;;;;;;6.68;4.28;;;15.80;99.90;;;;;;6157925;23;20080;-87
2023/08/23 02:51:57;;;;;;;7.30;3.90;;;15.90;99.90;;;;;;6158198;23;20067;-87
2023/08/23 02:54:23;;;;;;;6.47;3.83;;;15.80;99.90;;;;;;6133688;23;20347;-87
2023/08/23 02:56:49;;;;;;;13.23;3.97;;;15.80;99.90;;;;;;6157341;23;20147;-87
2023/08/23 02:59:15;;;;;;;7.38;4.20;;;15.80;99.90;;;;;;6132999;23;20048;-87
2023/08/23 03:01:40;;;;;;;7.47;3.90;;;15.70;99.90;;;;;;6158224;23;20067;-87
2023/08/23 03:04:06;;;;;;;7.55;3.30;;;15.70;99.90;;;;;;6133239;23;20402;-87
2023/08/23 03:06:31;;;;;;;6.30;2.20;;;15.70;99.90;;;;;;6133082;23;20020;-87
2023/08/23 03:08:57;;;;;;;5.38;2.38;;;15.50;99.90;;;;;;6157444;23;20450;-87
2023/08/23 03:11:23;;;;;;;6.22;2.53;;;15.40;99.90;;;;;;6132930;23;20005;-87
2023/08/23 03:13:48;;;;;;;6.75;3.70;;;15.30;99.90;;;;;;6157378;23;20458;-87
2023/08/23 03:16:14;;;;;;;5.38;2.60;;;15.40;99.90;;;;;;6132957;23;20009;-86
2023/08/23 03:18:40;;;;;;;7.60;3.72;;;15.40;99.90;;;;;;6156676;23;20071;-87
2023/08/23 03:21:05;;;;;;;6.70;3.80;;;15.40;99.90;;;;;;6132028;23;20011;-87
2023/08/23 03:23:31;;;;;;;7.40;4.03;;;15.50;99.90;;;;;;6132841;23;20009;-87
2023/08/23 03:25:57;;;;;;;8.32;5.18;;;15.50;99.90;;;;;;6157318;23;20044;-87
2023/08/23 03:28:22;;;;;;;7.28;3.17;;;15.50;99.90;;;;;;6132351;23;20057;-87
2023/08/23 03:30:48;;;;;;;7.28;3.30;;;15.50;99.90;;;;;;6157531;23;20048;-87
2023/08/23 03:33:13;;;;;;;9.77;5.53;;;15.40;99.90;;;;;;6132647;23;20019;-87
2023/08/23 03:35:39;;;;;;;8.70;4.20;;;15.40;99.90;;;;;;6132559;23;20050;-87
2023/08/23 03:38:05;;;;;;;8.68;4.45;;;15.40;99.90;;;;;;6156089;23;20013;-87
2023/08/23 03:40:35;;;;;;;8.98;6.80;;;15.40;99.90;;;;;;6157487;23;20009;-87
2023/08/23 03:43:01;;;;;;;10.70;7.50;;;15.50;99.90;;;;;;6157983;23;20009;-87
2023/08/23 03:45:26;;;;;;;9.32;7.13;;;15.50;99.90;;;;;;6132404;23;20528;-86
2023/08/23 03:47:52;;;;;;;8.93;6.95;;;15.50;99.90;;;;;;6132467;23;20009;-87
2023/08/23 03:50:18;;;;;;;9.60;7.20;;;15.60;99.90;;;;;;6157773;23;20015;-87
2023/08/23 03:52:43;;;;;;;8.73;4.72;;;15.50;99.90;;;;;;6157641;23;20035;-87
2023/08/23 03:55:09;;;;;;;8.30;6.30;;;15.50;99.90;;;;;;6132680;23;20017;-87
2023/08/23 03:57:34;;;;;;;9.45;7.28;;;15.50;99.90;;;;;;6131881;23;20017;-87
2023/08/23 04:00:00;;;;;;;11.52;10.32;;;15.60;99.90;;;;;;6156746;23;20017;-87
2023/08/23 04:02:26;;;;;;;18.48;16.55;;;15.60;99.90;;;;;;6156971;23;20095;-87
2023/08/23 04:04:51;;;;;;;11.23;6.65;;;15.60;99.90;;;;;;6132919;23;20335;-87
2023/08/23 04:07:17;;;;;;;9.52;6.38;;;15.60;99.90;;;;;;6133055;23;20017;-87
2023/08/23 04:09:43;;;;;;;10.00;6.35;;;15.60;99.90;;;;;;6156499;23;20016;-87
2023/08/23 04:12:09;;;;;;;11.07;7.35;;;15.60;99.90;;;;;;6156717;23;20016;-87
2023/08/23 04:14:35;;;;;;;13.80;11.43;;;15.60;99.90;;;;;;6156204;23;20009;-87
2023/08/23 04:17:02;;;;;;;10.45;6.38;;;15.60;99.90;;;;;;6157136;23;20118;-87
2023/08/23 04:19:27;;;;;;;10.35;8.43;;;15.70;99.90;;;;;;6131266;23;20017;-87
2023/08/23 04:21:53;;;;;;;8.30;4.55;;;15.70;99.90;;;;;;6132975;23;20013;-87
2023/08/23 04:24:20;;;;;;;8.65;6.35;;;15.70;99.90;;;;;;6157049;23;20015;-87
2023/08/23 04:26:45;;;;;;;7.85;4.45;;;15.60;99.90;;;;;;6157021;23;20052;-86
2023/08/23 04:29:11;;;;;;;7.38;3.75;;;15.60;99.90;;;;;;6131990;23;20463;-86
2023/08/23 04:31:36;;;;;;;7.57;5.30;;;15.60;99.90;;;;;;6132787;23;20009;-86
2023/08/23 04:34:04;;;;;;;8.52;5.82;;;15.50;99.90;;;;;;6133938;23;20332;-86
2023/08/23 04:36:30;;;;;;;7.18;3.17;;;15.50;99.90;;;;;;6134809;23;20039;-86
2023/08/23 04:38:56;;;;;;;6.85;4.80;;;15.30;99.90;;;;;;6133645;23;20079;-86
2023/08/23 04:41:22;;;;;;;6.95;3.00;;;15.20;99.90;;;;;;6133608;23;20017;-86
2023/08/23 04:43:47;;;;;;;7.45;4.95;;;15.10;99.90;;;;;;6159173;23;20016;-86
2023/08/23 04:46:13;;;;;;;6.97;3.05;;;15.10;99.90;;;;;;6158520;23;20413;-86
2023/08/23 04:48:38;;;;;;;7.90;5.53;;;15.10;99.90;;;;;;6158628;23;20467;-86
2023/08/23 04:51:08;;;;;;;7.55;5.53;;;15.10;99.90;;;;;;6159204;23;20009;-86
2023/08/23 04:53:34;;;;;;;7.60;4.05;;;15.20;99.90;;;;;;6133790;23;20009;-87
2023/08/23 04:56:00;;;;;;;8.38;4.20;;;15.20;99.90;;;;;;6158692;23;20049;-87
2023/08/23 04:58:32;;;;;;;8.05;6.18;;;15.20;99.90;;;;;;6158270;23;20419;-87
2023/08/23 05:00:58;;;;;;;;;;;15.30;99.90;;;;;;6159903;23;20017;-87
2023/08/23 05:03:25;;;;;;;13.48;12.05;;;15.30;99.90;;;;;;6134760;23;20373;-87
2023/08/23 05:05:52;;;;;;;9.20;5.10;;;15.40;99.90;;;;;;6134048;23;20017;-87
2023/08/23 05:08:17;;;;;;;13.90;12.50;;;15.50;99.90;;;;;;6158660;23;20013;-87
2023/08/23 05:10:43;;;;;;;12.70;11.40;;;15.50;99.90;;;;;;6159189;23;20139;-87
2023/08/23 05:13:09;;;;;;;12.98;11.63;;;15.60;99.90;;;;;;6161973;23;20501;-85
2023/08/23 05:15:34;;;;;;;15.38;13.70;;;15.70;99.90;;;;;;6180845;23;20020;-87
2023/08/23 05:18:00;;;;;;;13.10;11.63;;;15.80;99.90;;;;;;6136405;23;20009;-87
2023/08/23 05:20:26;;;;;;;13.68;8.60;;;15.80;99.90;;;;;;6160416;23;20009;-87
2023/08/23 05:22:51;;;;;;;17.17;14.43;;;15.80;99.90;;;;;;6160780;23;20009;-87
2023/08/23 05:25:17;;;;;;;16.40;14.80;;;15.80;99.90;;;;;;6135914;23;20391;-86
2023/08/23 05:27:43;;;;;;;15.65;10.45;;;15.90;99.90;;;;;;6160011;23;20092;-86
2023/08/23 05:30:09;;;;;;;16.50;13.82;;;15.90;99.90;;;;;;6160170;23;20013;-87
2023/08/23 05:32:34;;;;;;;15.48;9.50;;;16.00;99.90;;;;;;6159518;23;20410;-87
2023/08/23 05:35:00;;;;;;;15.63;10.23;;;16.00;99.90;;;;;;6159037;23;20013;-87
2023/08/23 05:37:26;;;;;;;15.20;10.30;;;16.00;99.90;;;;;;6158426;23;20474;-87
2023/08/23 05:39:51;;;;;;;23.80;21.38;;;16.00;99.90;;;;;;6158184;23;20017;-87
2023/08/23 05:42:17;;;;;;;15.38;10.57;;;16.10;99.90;;;;;;6158891;23;20024;-87
2023/08/23 05:44:43;;;;;;;18.45;13.23;;;16.10;99.90;;;;;;6133751;23;20019;-87
2023/08/23 05:47:08;;;;;;;23.23;20.83;;;16.10;99.90;;;;;;6158429;23;20087;-87
2023/08/23 05:49:34;;;;;;;22.88;20.63;;;16.20;99.90;;;;;;6133724;23;20013;-86
2023/08/23 05:52:00;;;;;;;22.58;20.33;;;16.30;99.90;;;;;;6157982;23;20346;-87
2023/08/23 05:54:25;;;;;;;27.77;25.02;;;16.30;99.90;;;;;;6158230;23;20032;-87
2023/08/23 05:56:51;;;;;;;17.25;11.05;;;16.40;99.90;;;;;;6133126;23;20009;-87
2023/08/23 05:59:16;;;;;;;20.02;18.02;;;16.30;99.90;;;;;;6157597;23;20799;-87
2023/08/23 06:01:42;;;;;;;17.02;11.75;;;16.40;99.90;;;;;;6133824;23;20009;-87
2023/08/23 06:04:08;;;;;;;21.42;19.27;;;16.40;99.90;;;;;;6158773;23;20009;-87
2023/08/23 06:06:33;;;;;;;22.35;20.15;;;16.40;99.90;;;;;;6157807;23;20016;-87
2023/08/23 06:09:00;;;;;;;23.20;20.77;;;16.50;99.90;;;;;;6158308;23;20065;-87
2023/08/23 06:11:25;;;;;;;16.95;11.70;;;16.50;99.90;;;;;;6158639;23;20005;-87
2023/08/23 06:13:51;;;;;;;42.08;22.55;;;16.50;99.90;;;;;;6157927;23;20347;-87
2023/08/23 06:16:17;;;;;;;21.83;19.50;;;16.50;99.90;;;;;;6158061;23;20092;-87
2023/08/23 06:18:42;;;;;;;23.95;20.85;;;16.50;99.90;;;;;;6132856;23;20457;-86
2023/08/23 06:21:08;;;;;;;14.68;9.75;;;16.60;99.90;;;;;;6157484;23;20008;-86
2023/08/23 06:23:34;;;;;;;21.33;19.23;;;16.50;99.90;;;;;;6157658;23;20049;-85
2023/08/23 06:26:02;;;;;;;19.08;11.02;;;16.50;99.90;;;;;;6158008;23;20021;-87
2023/08/23 06:28:28;;;;;;;20.55;18.45;;;16.60;99.90;;;;;;6157697;23;20028;-87
2023/08/23 06:30:55;;;;;;;23.33;21.02;;;16.60;99.90;;;;;;6157283;23;20009;-87
2023/08/23 06:33:21;;;;;;;14.52;10.55;;;16.70;99.90;;;;;;6157403;23;20028;-87
2023/08/23 06:35:47;;;;;;;17.58;12.45;;;16.70;99.90;;;;;;6132129;23;20084;-87
2023/08/23 06:38:15;;;;;;;22.17;19.98;;;16.70;99.90;;;;;;6183252;23;20443;-87
2023/08/23 06:40:44;;;;;;;21.52;19.50;;;16.80;99.90;;;;;;6157261;23;20332;-87
2023/08/23 06:43:18;;;;;;;16.23;9.88;;;17.00;99.90;;;;;;6158146;23;20044;-87
2023/08/23 06:45:43;;;;;;;24.27;21.88;;;16.90;99.90;;;;;;6158294;23;20013;-87
2023/08/23 06:48:09;;;;;;;25.38;22.88;;;17.00;99.90;;;;;;6132920;23;20095;-87
2023/08/23 06:50:38;;;;;;;23.83;21.40;;;17.10;99.90;;;;;;6133283;23;20477;-87
2023/08/23 06:53:04;;;;;;;26.40;23.83;;;17.20;99.90;;;;;;6133240;23;20054;-87
2023/08/23 06:55:29;;;;;;;17.52;13.65;;;17.30;99.90;;;;;;6183561;23;20088;-87
2023/08/23 06:57:55;;;;;;;26.10;23.23;;;17.30;99.90;;;;;;6157262;23;20020;-87
2023/08/23 07:00:20;;;;;;;25.58;23.05;;;17.40;99.90;;;;;;6157526;23;20013;-87
2023/08/23 07:02:48;;;;;;;28.77;26.08;;;17.50;99.90;;;;;;6133091;23;20009;-87
2023/08/23 07:05:13;;;;;;;33.50;30.25;;;17.60;99.90;;;;;;6157737;23;20020;-88
2023/08/23 07:07:39;;;;;;;26.98;16.52;;;17.60;99.90;;;;;;6157428;23;20092;-88
2023/08/23 07:10:05;;;;;;;30.40;26.90;;;17.70;99.90;;;;;;6184224;23;20095;-88
2023/08/23 07:12:31;;;;;;;28.75;25.63;;;17.80;99.90;;;;;;6157964;23;20029;-88
2023/08/23 07:14:56;;;;;;;28.98;25.90;;;17.90;99.90;;;;;;6132409;23;20005;-87
2023/08/23 07:17:22;;;;;;;29.67;26.48;;;17.90;99.90;;;;;;6157081;23;20052;-88
2023/08/23 07:19:48;;;;;;;22.17;17.52;;;18.00;99.90;;;;;;6157543;23;20017;-87
2023/08/23 07:22:13;;;;;;;26.50;23.60;;;18.10;99.90;;;;;;6132657;23;20332;-87
2023/08/23 07:24:39;;;;;;;26.52;23.65;;;18.20;99.90;;;;;;6133329;23;20013;-87
2023/08/23 07:27:05;;;;;;;25.40;22.73;;;18.30;99.90;;;;;;6157617;23;20474;-88
2023/08/23 07:29:31;;;;;;;20.42;14.63;;;18.30;99.90;;;;;;6157701;23;20009;-88
2023/08/23 07:31:57;;;;;;;25.05;19.30;;;18.40;99.90;;;;;;6157262;23;20139;-87
2023/08/23 07:34:23;;;;;;;22.83;17.98;;;18.50;99.90;;;;;;6133861;23;20008;-88
2023/08/23 07:36:48;;;;;;;22.52;17.42;;;18.60;99.90;;;;;;6133406;23;20064;-88
2023/08/23 07:39:14;;;;;;;18.85;16.25;;;18.70;99.90;;;;;;6157116;23;20035;-88
2023/08/23 07:41:39;;;;;;;19.60;17.08;;;18.80;99.90;;;;;;6157410;23;20394;-88
2023/08/23 07:44:05;;;;;;;20.00;17.83;;;18.90;99.90;;;;;;6133023;23;20016;-88
2023/08/23 07:46:31;;;;;;;19.60;16.40;;;19.00;99.90;;;;;;6133086;23;20013;-88
2023/08/23 07:48:56;;;;;;;17.80;13.88;;;19.00;99.90;;;;;;6157960;23;20010;-88
2023/08/23 07:51:22;;;;;;;12.32;10.27;;;19.10;99.90;;;;;;6157037;23;20005;-88
2023/08/23 07:53:48;;;;;;;12.68;10.18;;;19.20;99.90;;;;;;6158105;23;20457;-87
2023/08/23 07:56:13;;;;;;;14.50;12.60;;;19.30;99.90;;;;;;6157337;23;20468;-87
2023/08/23 07:58:40;;;;;;;14.07;11.90;;;19.40;99.90;;;;;;6132255;23;20005;-87
2023/08/23 08:01:06;;;;;;;15.55;12.23;;;19.40;99.90;;;;;;6132607;23;20005;-88
2023/08/23 08:03:31;;;;;;;13.60;11.68;;;19.40;99.90;;;;;;6132661;23;20457;-88
2023/08/23 08:05:57;;;;;;;12.50;11.20;;;19.40;99.90;;;;;;6133400;23;20009;-88
2023/08/23 08:08:22;;;;;;;13.68;11.13;;;19.50;99.90;;;;;;6155565;23;20103;-88
2023/08/23 08:10:49;;;;;;;13.80;11.50;;;19.50;99.90;;;;;;6132303;23;20536;-87
2023/08/23 08:13:15;;;;;;;14.73;12.43;;;19.50;99.90;;;;;;6133162;23;20009;-88
2023/08/23 08:15:42;;;;;;;13.00;11.20;;;19.60;99.90;;;;;;6157092;23;20013;-87
2023/08/23 08:18:10;;;;;;;14.45;12.15;;;19.70;99.90;;;;;;6156655;23;20055;-87
2023/08/23 08:20:35;;;;;;;13.95;11.98;;;19.70;99.90;;;;;;6157083;23;20013;-87
2023/08/23 08:23:03;;;;;;;13.95;12.30;;;19.80;99.90;;;;;;6156487;23;20013;-87
2023/08/23 08:25:29;;;;;;;13.30;9.38;;;19.80;99.90;;;;;;6157275;23;20395;-88
2023/08/23 08:27:55;;;;;;;10.15;7.85;;;19.80;99.90;;;;;;6156785;23;20521;-88
2023/08/23 08:30:23;;;;;;;13.13;8.65;;;19.90;99.90;;;;;;6157452;23;20017;-88
2023/08/23 08:32:49;;;;;;;10.68;8.00;;;20.00;99.90;;;;;;6157896;23;20080;-88
2023/08/23 08:35:14;;;;;;;10.77;8.93;;;20.00;99.90;;;;;;6157756;23;20055;-87
2023/08/23 08:37:42;;;;;;;11.32;8.60;;;20.10;99.90;;;;;;6156887;23;20021;-88
2023/08/23 08:40:09;;;;;;;15.30;8.85;;;20.10;99.90;;;;;;6132284;23;20019;-88
2023/08/23 08:42:40;;;;;;;12.38;9.68;;;20.20;99.90;;;;;;6183824;23;20024;-88
2023/08/23 08:45:06;;;;;;;12.23;8.40;;;20.30;99.90;;;;;;6132892;23;20343;-88
2023/08/23 08:47:34;;;;;;;10.65;7.93;;;20.30;99.90;;;;;;6156810;23;20473;-88
2023/08/23 08:50:00;;;;;;;10.68;7.80;;;20.40;99.90;;;;;;6183779;23;20131;-88
2023/08/23 08:52:29;;;;;;;10.73;7.22;;;20.50;99.90;;;;;;6157412;23;20013;-87
2023/08/23 08:54:57;;;;;;;12.30;8.15;;;20.50;99.90;;;;;;6132398;23;20020;-88
2023/08/23 08:57:27;;;;;;;10.50;7.93;;;20.60;99.90;;;;;;6131762;23;20017;-88
2023/08/23 08:59:56;;;;;;;10.23;7.68;;;20.70;99.90;;;;;;6156394;23;20013;-88
2023/08/23 09:02:25;;;;;;;9.18;6.05;;;20.70;99.90;;;;;;6156662;23;20024;-88
2023/08/23 09:04:52;;;;;;;9.68;6.35;;;20.80;99.90;;;;;;6132816;23;20613;-87
2023/08/23 09:07:17;;;;;;;9.85;6.63;;;20.90;99.90;;;;;;6131889;23;20616;-87
2023/08/23 09:09:43;;;;;;;12.13;7.13;;;21.00;99.90;;;;;;6156628;23;20060;-88
2023/08/23 09:12:10;;;;;;;9.23;6.07;;;21.00;99.90;;;;;;6156247;23;20071;-88
2023/08/23 09:14:37;;;;;;;10.23;7.00;;;21.10;99.90;;;;;;6156265;23;20033;-88
2023/08/23 09:17:04;;;;;;;9.82;6.35;;;21.20;99.90;;;;;;6131792;23;20017;-88
2023/08/23 09:19:35;;;;;;;9.43;6.35;;;21.30;99.90;;;;;;6132042;23;20017;-89
2023/08/23 09:22:08;;;;;;;9.20;4.80;;;21.40;99.90;;;;;;6158619;23;20020;-88
2023/08/23 09:24:34;;;;;;;9.80;4.80;;;21.40;99.90;;;;;;6134378;23;20020;-88
2023/08/23 09:27:00;;;;;;;9.85;5.03;;;21.50;99.90;;;;;;6184969;23;20021;-88
2023/08/23 09:29:26;;;;;;;9.13;5.25;;;21.60;99.90;;;;;;6184962;23;20051;-88
2023/08/23 09:31:52;;;;;;;9.48;6.03;;;21.60;99.90;;;;;;6133340;23;20515;-88
2023/08/23 09:34:18;;;;;;;9.82;4.65;;;21.70;99.90;;;;;;6158914;23;20009;-88
2023/08/23 09:36:43;;;;;;;10.85;4.70;;;21.80;99.90;;;;;;6133480;23;20024;-88
2023/08/23 09:39:10;;;;;;;9.82;4.88;;;21.90;99.90;;;;;;6133165;23;20069;-88
2023/08/23 09:41:43;;;;;;;9.05;5.30;;;21.90;99.90;;;;;;6158625;23;20017;-87
2023/08/23 09:44:08;;;;;;;;;;;22.00;99.90;;;;;;6134352;23;20401;-88
2023/08/23 09:46:36;;;;;;;8.85;4.38;;;22.00;99.90;;;;;;6158775;23;19920;-88
2023/08/23 09:49:07;;;;;;;9.35;4.57;;;22.00;99.90;;;;;;6133640;23;20339;-88
2023/08/23 09:51:39;;;;;;;7.72;3.88;;;22.10;99.90;;;;;;6133353;23;20009;-88
2023/08/23 09:54:17;;;;;;;7.95;4.00;;;22.20;99.90;;;;;;6158848;23;20013;-88
2023/08/23 09:56:44;;;;;;;8.05;4.13;;;22.30;99.90;;;;;;6133371;23;20024;-88
2023/08/23 09:59:10;;;;;;;7.78;3.08;;;22.40;99.90;;;;;;6133175;23;20394;-87
2023/08/23 10:01:36;;;;;;;8.15;3.05;;;22.40;99.90;;;;;;6157577;23;20013;-87
2023/08/23 10:04:03;;;;;;;8.02;3.55;;;22.50;99.90;;;;;;6158172;23;20059;-86
2023/08/23 10:06:30;;;;;;;7.25;3.38;;;22.60;99.90;;;;;;6133123;23;20016;-87
2023/08/23 10:08:57;;;;;;;7.38;3.03;;;22.60;99.90;;;;;;6157693;23;20455;-87
2023/08/23 10:11:23;;;;;;;8.13;3.08;;;22.70;99.90;;;;;;6133178;23;20098;-87
2023/08/23 10:13:51;;;;;;;7.95;3.17;;;22.80;99.90;;;;;;6133568;23;20009;-87
2023/08/23 10:16:19;;;;;;;8.27;2.88;;;22.90;99.90;;;;;;6157864;23;20036;-88
2023/08/23 10:18:45;;;;;;;7.72;2.97;;;22.90;99.90;;;;;;6157419;23;20013;-87
2023/08/23 10:21:11;;;;;;;7.85;3.03;;;23.00;99.90;;;;;;6132199;23;20009;-87
2023/08/23 10:23:37;;;;;;;7.40;2.90;;;23.00;99.90;;;;;;6158066;23;20080;-87
2023/08/23 10:26:03;;;;;;;7.18;2.78;;;23.00;99.90;;;;;;6183799;23;20005;-88
2023/08/23 10:28:29;;;;;;;8.25;3.20;;;23.10;99.90;;;;;;6157689;23;20420;-88
2023/08/23 10:30:59;;;;;;;7.60;2.80;;;23.10;99.90;;;;;;6157963;23;20041;-88
2023/08/23 10:33:25;;;;;;;5.90;2.40;;;23.20;99.80;;;;;;6133970;23;20009;-88
2023/08/23 10:35:50;;;;;;;7.05;2.78;;;23.30;99.90;;;;;;6158065;23;20073;-88
2023/08/23 10:38:16;;;;;;;5.78;2.40;;;23.30;99.10;;;;;;6133047;23;20009;-88
2023/08/23 10:40:45;;;;;;;5.95;2.30;;;23.30;97.50;;;;;;6132759;23;20013;-88
2023/08/23 10:43:14;;;;;;;8.18;2.40;;;23.50;99.20;;;;;;6132835;23;20399;-88
2023/08/23 10:45:52;;;;;;;6.03;2.50;;;23.50;96.70;;;;;;6157827;23;20025;-88
2023/08/23 10:48:22;;;;;;;7.72;3.05;;;23.60;94.90;;;;;;6132457;23;20380;-88
2023/08/23 10:50:48;;;;;;;6.82;2.90;;;23.60;95.30;;;;;;6157152;23;20013;-88
2023/08/23 10:53:17;;;;;;;6.97;2.67;;;23.70;93.50;;;;;;6132064;23;20017;-88
2023/08/23 10:55:43;;;;;;;6.00;2.50;;;23.80;96.50;;;;;;6133661;23;20009;-89
2023/08/23 10:58:09;;;;;;;8.00;3.15;;;23.80;93.90;;;;;;6132845;23;20013;-88
2023/08/23 11:00:36;;;;;;;8.45;3.10;;;23.90;94.80;;;;;;6132781;23;20023;-89
2023/08/23 11:03:04;;;;;;;5.97;2.10;;;24.00;92.20;;;;;;6132800;23;20020;-89
2023/08/23 11:05:29;;;;;;;6.03;2.55;;;24.10;93.40;;;;;;6132944;23;20443;-88
2023/08/23 11:07:57;;;;;;;5.75;2.35;;;24.10;92.60;;;;;;6157737;23;20431;-88
2023/08/23 11:10:25;;;;;;;7.28;2.60;;;24.20;93.20;;;;;;6157483;23;20458;-88
2023/08/23 11:12:50;;;;;;;6.63;2.50;;;24.30;93.40;;;;;;6133370;23;20017;-88
2023/08/23 11:15:16;;;;;;;6.63;2.50;;;24.40;90.80;;;;;;6132725;23;20463;-88
2023/08/23 11:17:42;;;;;;;5.95;2.20;;;24.50;90.70;;;;;;6132288;23;20017;-89
2023/08/23 11:20:10;;;;;;;7.38;2.25;;;24.50;90.40;;;;;;6131933;23;20012;-89
2023/08/23 11:22:35;;;;;;;6.97;2.42;;;24.60;90.40;;;;;;6156995;23;20350;-88
2023/08/23 11:25:02;;;;;;;7.22;2.17;;;24.70;87.00;;;;;;6184110;23;20453;-89
2023/08/23 11:27:28;;;;;;;7.18;2.50;;;24.80;87.70;;;;;;6157131;23;20048;-89
2023/08/23 11:30:01;;;;;;;8.30;2.80;;;24.90;87.40;;;;;;6132214;23;20087;-88
2023/08/23 11:32:27;;;;;;;6.97;2.80;;;25.00;84.80;;;;;;6157032;23;20025;-89
2023/08/23 11:34:57;;;;;;;8.02;2.70;;;25.10;84.60;;;;;;6157775;23;20013;-89
2023/08/23 11:37:23;;;;;;;6.68;2.50;;;25.20;86.50;;;;;;6155980;23;20017;-89
2023/08/23 11:40:15;;;;;;;5.70;2.10;;;25.30;83.30;;;;;;6156174;23;20075;-89
2023/08/23 11:42:41;;;;;;;7.85;2.72;;;25.40;81.90;;;;;;6152050;23;20462;-89
2023/08/23 11:45:07;;;;;;;8.45;2.63;;;25.60;83.60;;;;;;6157184;23;20027;-89
2023/08/23 11:47:34;;;;;;;6.70;2.30;;;25.60;79.10;;;;;;6157248;23;20088;-89
2023/08/23 11:50:07;;;;;;;6.85;2.28;;;25.70;78.60;;;;;;6157241;23;20088;-89
2023/08/23 11:52:32;;;;;;;6.45;2.15;;;25.80;80.40;;;;;;6157181;23;20017;-89
2023/08/23 11:55:02;;;;;;;7.88;2.42;;;25.90;79.70;;;;;;6157747;23;20018;-89
2023/08/23 11:57:31;;;;;;;7.70;2.60;;;26.00;80.30;;;;;;6132201;23;20051;-88
2023/08/23 11:59:57;;;;;;;7.53;3.30;;;26.10;79.50;;;;;;6156913;23;20361;-88
2023/08/23 12:02:22;;;;;;;7.82;3.50;;;26.10;76.90;;;;;;6132149;23;20017;-88
2023/08/23 12:04:56;;;;;;;8.02;2.65;;;26.00;76.10;;;;;;6157483;23;20027;-88
2023/08/23 12:07:22;;;;;;;5.88;2.15;;;25.90;75.70;;;;;;6132659;23;20017;-89
2023/08/23 12:09:47;;;;;;;8.77;3.22;;;25.90;81.10;;;;;;6157422;23;20075;-89
2023/08/23 12:12:13;;;;;;;7.90;3.17;;;26.10;78.60;;;;;;6132577;23;20521;-89
2023/08/23 12:14:39;;;;;;;7.70;2.78;;;26.00;77.50;;;;;;6158195;23;20020;-89
2023/08/23 12:17:04;;;;;;;7.82;3.50;;;25.90;77.30;;;;;;6132174;23;20013;-88
2023/08/23 12:19:35;;;;;;;7.35;3.80;;;25.80;78.70;;;;;;6156738;23;20020;-89
2023/08/23 12:22:01;;;;;;;9.73;3.75;;;25.70;80.70;;;;;;6132078;23;20017;-89
2023/08/23 12:24:28;;;;;;;8.43;3.10;;;25.80;81.30;;;;;;6132099;23;20406;-88
2023/08/23 12:26:54;;;;;;;7.85;3.10;;;25.70;80.80;;;;;;6156812;23;20017;-89
2023/08/23 12:29:19;;;;;;;7.22;2.67;;;25.70;80.20;;;;;;6157093;23;20017;-89
2023/08/23 12:31:45;;;;;;;8.48;2.58;;;25.70;80.80;;;;;;6132883;23;20092;-89
2023/08/23 12:34:10;;;;;;;6.13;2.70;;;25.80;80.40;;;;;;6157560;23;20013;-89
2023/08/23 12:36:36;;;;;;;7.55;2.80;;;26.00;82.70;;;;;;6132659;23;20009;-89